Terminal Aerodrome Forecast
Issued by NWS Shreveport, LA

Home | Current Version | Previous Version | Text Only | Print | Product List | Glossary On
Versions: 1 2 3 4 5 6 7 8 9 10 11 12 13 14 15 16 17 18 19 20
000
FTUS44 KSHV 232328
TAFTXK
TAF
KTXK 232328Z 2400/2424 18010KT P6SM SKC
      TEMPO 2400/2402 20014G22KT
     FM241100 16012KT P6SM OVC015
      TEMPO 2413/2416 16014G22KT BKN025
     FM241600 17016G28KT P6SM BKN040 OVC120
     FM242000 18020G30KT P6SM VCTS BKN050CB=

USA.gov is the U.S. government's official web portal to all federal, state and local government web resources and services.